sensor_id;sensor_type;location;lat;lon;timestamp;temperature;humidity
40952;DHT22;26682;51.660;19.338;2023-04-03T00:02:05;0.60;99.90
40952;DHT22;26682;51.660;19.338;2023-04-03T00:04:47;0.60;99.90
40952;DHT22;26682;51.660;19.338;2023-04-03T00:07:29;0.60;99.90
40952;DHT22;26682;51.660;19.338;2023-04-03T00:10:12;0.60;99.90
40952;DHT22;26682;51.660;19.338;2023-04-03T00:12:56;0.50;99.90
40952;DHT22;26682;51.660;19.338;2023-04-03T00:15:38;0.50;99.90
40952;DHT22;26682;51.660;19.338;2023-04-03T00:18:22;0.50;99.90
40952;DHT22;26682;51.660;19.338;2023-04-03T00:21:05;0.50;99.90
40952;DHT22;26682;51.660;19.338;2023-04-03T00:23:48;0.50;99.90
40952;DHT22;26682;51.660;19.338;2023-04-03T00:26:31;0.50;99.90
40952;DHT22;26682;51.660;19.338;2023-04-03T00:29:13;0.50;99.90
40952;DHT22;26682;51.660;19.338;2023-04-03T00:31:56;0.50;21.90
40952;DHT22;26682;51.660;19.338;2023-04-03T00:34:39;0.40;22.30
40952;DHT22;26682;51.660;19.338;2023-04-03T00:37:21;0.40;1.00
40952;DHT22;26682;51.660;19.338;2023-04-03T00:40:04;0.40;1.00
40952;DHT22;26682;51.660;19.338;2023-04-03T00:42:48;0.30;1.00
40952;DHT22;26682;51.660;19.338;2023-04-03T00:45:35;0.30;1.00
40952;DHT22;26682;51.660;19.338;2023-04-03T00:48:42;0.30;1.00
40952;DHT22;26682;51.660;19.338;2023-04-03T00:51:26;0.30;1.00
40952;DHT22;26682;51.660;19.338;2023-04-03T00:54:08;0.20;1.00
40952;DHT22;26682;51.660;19.338;2023-04-03T00:56:53;0.20;1.00
40952;DHT22;26682;51.660;19.338;2023-04-03T00:59:44;0.20;1.00
40952;DHT22;26682;51.660;19.338;2023-04-03T01:02:29;0.20;1.00
40952;DHT22;26682;51.660;19.338;2023-04-03T01:05:13;0.10;1.00
40952;DHT22;26682;51.660;19.338;2023-04-03T01:07:58;0.00;1.00
40952;DHT22;26682;51.660;19.338;2023-04-03T01:10:43;0.00;1.00
40952;DHT22;26682;51.660;19.338;2023-04-03T01:13:29;0.00;1.00
40952;DHT22;26682;51.660;19.338;2023-04-03T01:16:11;-0.10;1.00
40952;DHT22;26682;51.660;19.338;2023-04-03T01:18:54;-0.10;25.80
40952;DHT22;26682;51.660;19.338;2023-04-03T01:24:38;-0.20;23.40
40952;DHT22;26682;51.660;19.338;2023-04-03T01:27:25;-0.20;29.90
40952;DHT22;26682;51.660;19.338;2023-04-03T01:30:08;-0.20;30.00
40952;DHT22;26682;51.660;19.338;2023-04-03T01:32:51;-0.20;43.60
40952;DHT22;26682;51.660;19.338;2023-04-03T01:35:35;-0.20;1.00
40952;DHT22;26682;51.660;19.338;2023-04-03T01:38:18;-0.20;4.00
40952;DHT22;26682;51.660;19.338;2023-04-03T01:41:00;-0.30;28.10
40952;DHT22;26682;51.660;19.338;2023-04-03T01:43:43;-0.30;1.00
40952;DHT22;26682;51.660;19.338;2023-04-03T01:46:26;-0.30;28.40
40952;DHT22;26682;51.660;19.338;2023-04-03T01:49:09;-0.30;51.00
40952;DHT22;26682;51.660;19.338;2023-04-03T01:51:52;-0.40;92.80
40952;DHT22;26682;51.660;19.338;2023-04-03T01:54:35;-0.30;1.00
40952;DHT22;26682;51.660;19.338;2023-04-03T01:57:18;-0.40;1.00
40952;DHT22;26682;51.660;19.338;2023-04-03T02:00:00;-0.40;1.00
40952;DHT22;26682;51.660;19.338;2023-04-03T02:02:43;-0.40;1.00
40952;DHT22;26682;51.660;19.338;2023-04-03T02:05:25;-0.40;33.90
40952;DHT22;26682;51.660;19.338;2023-04-03T02:08:08;-0.50;62.30
40952;DHT22;26682;51.660;19.338;2023-04-03T02:10:50;-0.50;62.80
40952;DHT22;26682;51.660;19.338;2023-04-03T02:13:33;-0.50;39.00
40952;DHT22;26682;51.660;19.338;2023-04-03T02:16:15;-0.50;99.90
40952;DHT22;26682;51.660;19.338;2023-04-03T02:19:00;-0.50;75.50
40952;DHT22;26682;51.660;19.338;2023-04-03T02:21:44;-0.50;33.00
40952;DHT22;26682;51.660;19.338;2023-04-03T02:24:27;-0.50;1.00
40952;DHT22;26682;51.660;19.338;2023-04-03T02:27:09;-0.60;1.00
40952;DHT22;26682;51.660;19.338;2023-04-03T02:29:52;-0.60;46.20
40952;DHT22;26682;51.660;19.338;2023-04-03T02:32:34;-0.60;76.10
40952;DHT22;26682;51.660;19.338;2023-04-03T02:35:18;-0.60;33.60
40952;DHT22;26682;51.660;19.338;2023-04-03T02:38:01;-0.60;13.30
40952;DHT22;26682;51.660;19.338;2023-04-03T02:40:43;-0.60;84.80
40952;DHT22;26682;51.660;19.338;2023-04-03T02:43:26;-0.70;20.50
40952;DHT22;26682;51.660;19.338;2023-04-03T02:46:08;-0.70;71.60
40952;DHT22;26682;51.660;19.338;2023-04-03T02:48:51;-0.70;21.40
40952;DHT22;26682;51.660;19.338;2023-04-03T02:51:34;-0.70;5.80
40952;DHT22;26682;51.660;19.338;2023-04-03T02:54:16;-0.70;1.00
40952;DHT22;26682;51.660;19.338;2023-04-03T02:57:03;-0.70;1.00
40952;DHT22;26682;51.660;19.338;2023-04-03T02:59:46;-0.70;1.00
40952;DHT22;26682;51.660;19.338;2023-04-03T03:02:29;-0.70;1.00
40952;DHT22;26682;51.660;19.338;2023-04-03T03:05:11;-0.60;99.90
40952;DHT22;26682;51.660;19.338;2023-04-03T03:07:54;-0.50;99.90
40952;DHT22;26682;51.660;19.338;2023-04-03T03:10:36;-0.60;99.90
40952;DHT22;26682;51.660;19.338;2023-04-03T03:13:22;-0.60;99.90
40952;DHT22;26682;51.660;19.338;2023-04-03T03:16:04;-0.70;99.90
40952;DHT22;26682;51.660;19.338;2023-04-03T03:18:47;-0.70;99.90
40952;DHT22;26682;51.660;19.338;2023-04-03T03:21:30;-0.70;99.90
40952;DHT22;26682;51.660;19.338;2023-04-03T03:24:12;-0.60;99.90
40952;DHT22;26682;51.660;19.338;2023-04-03T03:26:54;-0.60;99.90
40952;DHT22;26682;51.660;19.338;2023-04-03T03:29:37;-0.60;99.90
40952;DHT22;26682;51.660;19.338;2023-04-03T03:32:20;-0.60;99.90
40952;DHT22;26682;51.660;19.338;2023-04-03T03:35:02;-0.60;99.90
40952;DHT22;26682;51.660;19.338;2023-04-03T03:37:45;-0.70;99.90
40952;DHT22;26682;51.660;19.338;2023-04-03T03:40:28;-0.70;99.90
40952;DHT22;26682;51.660;19.338;2023-04-03T03:43:11;-0.70;99.90
40952;DHT22;26682;51.660;19.338;2023-04-03T03:45:53;-0.60;94.00
40952;DHT22;26682;51.660;19.338;2023-04-03T03:48:38;-0.70;76.80
40952;DHT22;26682;51.660;19.338;2023-04-03T03:51:20;-0.70;1.00
40952;DHT22;26682;51.660;19.338;2023-04-03T03:54:04;-0.70;1.00
40952;DHT22;26682;51.660;19.338;2023-04-03T03:56:47;-0.70;88.40
40952;DHT22;26682;51.660;19.338;2023-04-03T03:59:29;-0.80;94.90
40952;DHT22;26682;51.660;19.338;2023-04-03T04:02:12;-0.80;99.90
40952;DHT22;26682;51.660;19.338;2023-04-03T04:04:54;-0.80;98.50
40952;DHT22;26682;51.660;19.338;2023-04-03T04:07:37;-0.80;86.30
40952;DHT22;26682;51.660;19.338;2023-04-03T04:10:20;-0.80;45.80
40952;DHT22;26682;51.660;19.338;2023-04-03T04:13:03;-0.90;35.40
40952;DHT22;26682;51.660;19.338;2023-04-03T04:15:46;-0.90;1.00
40952;DHT22;26682;51.660;19.338;2023-04-03T04:18:31;-0.90;19.30
40952;DHT22;26682;51.660;19.338;2023-04-03T04:21:13;-0.90;23.80
40952;DHT22;26682;51.660;19.338;2023-04-03T04:23:56;-1.00;4.90
40952;DHT22;26682;51.660;19.338;2023-04-03T04:26:40;-1.00;17.60
40952;DHT22;26682;51.660;19.338;2023-04-03T04:29:26;-1.00;1.00
40952;DHT22;26682;51.660;19.338;2023-04-03T04:32:08;-1.00;11.70
40952;DHT22;26682;51.660;19.338;2023-04-03T04:34:51;-1.00;1.00
40952;DHT22;26682;51.660;19.338;2023-04-03T04:37:34;-1.00;68.50
40952;DHT22;26682;51.660;19.338;2023-04-03T04:40:18;-1.00;1.00
40952;DHT22;26682;51.660;19.338;2023-04-03T04:43:01;-1.00;13.10
40952;DHT22;26682;51.660;19.338;2023-04-03T04:45:43;-1.00;25.10
40952;DHT22;26682;51.660;19.338;2023-04-03T04:48:26;-1.00;17.80
40952;DHT22;26682;51.660;19.338;2023-04-03T04:51:10;-1.00;14.80
40952;DHT22;26682;51.660;19.338;2023-04-03T04:53:53;-1.10;1.00
40952;DHT22;26682;51.660;19.338;2023-04-03T04:56:38;-1.10;4.00
40952;DHT22;26682;51.660;19.338;2023-04-03T04:59:21;-1.10;76.50
40952;DHT22;26682;51.660;19.338;2023-04-03T05:02:06;-1.10;48.60
40952;DHT22;26682;51.660;19.338;2023-04-03T05:04:50;-1.10;62.40
40952;DHT22;26682;51.660;19.338;2023-04-03T05:07:39;-1.10;82.60
40952;DHT22;26682;51.660;19.338;2023-04-03T05:10:22;-1.00;85.80
40952;DHT22;26682;51.660;19.338;2023-04-03T05:13:05;-1.10;48.20
40952;DHT22;26682;51.660;19.338;2023-04-03T05:15:47;-1.00;32.90
40952;DHT22;26682;51.660;19.338;2023-04-03T05:18:30;-0.90;1.00
40952;DHT22;26682;51.660;19.338;2023-04-03T05:21:16;-0.80;1.00
40952;DHT22;26682;51.660;19.338;2023-04-03T05:24:03;-0.70;1.00
40952;DHT22;26682;51.660;19.338;2023-04-03T05:26:47;-0.40;1.00
40952;DHT22;26682;51.660;19.338;2023-04-03T05:29:31;0.10;99.90
40952;DHT22;26682;51.660;19.338;2023-04-03T05:32:14;0.60;99.90
40952;DHT22;26682;51.660;19.338;2023-04-03T05:34:59;0.70;99.90
40952;DHT22;26682;51.660;19.338;2023-04-03T05:37:42;0.90;99.90
40952;DHT22;26682;51.660;19.338;2023-04-03T05:40:25;1.10;99.90
40952;DHT22;26682;51.660;19.338;2023-04-03T05:43:10;1.30;99.90
40952;DHT22;26682;51.660;19.338;2023-04-03T05:45:55;1.50;99.90
40952;DHT22;26682;51.660;19.338;2023-04-03T05:48:40;1.50;99.90
40952;DHT22;26682;51.660;19.338;2023-04-03T05:51:33;1.40;99.90
40952;DHT22;26682;51.660;19.338;2023-04-03T05:54:37;1.30;99.90
40952;DHT22;26682;51.660;19.338;2023-04-03T05:57:29;1.40;99.90
40952;DHT22;26682;51.660;19.338;2023-04-03T06:00:15;1.70;99.90
40952;DHT22;26682;51.660;19.338;2023-04-03T06:03:07;1.90;99.90
40952;DHT22;26682;51.660;19.338;2023-04-03T06:05:50;1.80;99.90
40952;DHT22;26682;51.660;19.338;2023-04-03T06:08:33;1.80;99.90
40952;DHT22;26682;51.660;19.338;2023-04-03T06:11:17;2.30;99.90
40952;DHT22;26682;51.660;19.338;2023-04-03T06:13:59;2.50;99.90
40952;DHT22;26682;51.660;19.338;2023-04-03T06:16:44;2.60;99.90
40952;DHT22;26682;51.660;19.338;2023-04-03T06:19:27;2.40;93.50
40952;DHT22;26682;51.660;19.338;2023-04-03T06:22:11;2.40;99.90
40952;DHT22;26682;51.660;19.338;2023-04-03T06:24:54;2.60;70.00
40952;DHT22;26682;51.660;19.338;2023-04-03T06:27:37;2.40;30.30
40952;DHT22;26682;51.660;19.338;2023-04-03T06:30:19;2.60;11.60
40952;DHT22;26682;51.660;19.338;2023-04-03T06:33:02;2.60;15.20
40952;DHT22;26682;51.660;19.338;2023-04-03T06:35:45;2.70;1.00
40952;DHT22;26682;51.660;19.338;2023-04-03T06:38:28;2.80;1.00
40952;DHT22;26682;51.660;19.338;2023-04-03T06:41:10;2.60;1.00
40952;DHT22;26682;51.660;19.338;2023-04-03T06:43:53;2.40;99.90
40952;DHT22;26682;51.660;19.338;2023-04-03T06:46:36;2.50;1.00
40952;DHT22;26682;51.660;19.338;2023-04-03T06:49:18;2.60;1.00
40952;DHT22;26682;51.660;19.338;2023-04-03T06:52:01;2.80;99.90
40952;DHT22;26682;51.660;19.338;2023-04-03T06:54:43;2.90;99.90
40952;DHT22;26682;51.660;19.338;2023-04-03T06:57:27;3.30;99.90
40952;DHT22;26682;51.660;19.338;2023-04-03T07:00:11;2.90;99.90
40952;DHT22;26682;51.660;19.338;2023-04-03T07:02:54;2.70;99.90
40952;DHT22;26682;51.660;19.338;2023-04-03T07:05:39;2.50;99.90
40952;DHT22;26682;51.660;19.338;2023-04-03T07:08:22;2.70;99.90
40952;DHT22;26682;51.660;19.338;2023-04-03T07:11:06;3.00;84.20
40952;DHT22;26682;51.660;19.338;2023-04-03T07:13:49;2.90;28.20
40952;DHT22;26682;51.660;19.338;2023-04-03T07:16:32;2.70;10.80
40952;DHT22;26682;51.660;19.338;2023-04-03T07:19:15;2.70;1.00
40952;DHT22;26682;51.660;19.338;2023-04-03T07:21:57;2.60;1.00
40952;DHT22;26682;51.660;19.338;2023-04-03T07:24:40;2.70;1.00
40952;DHT22;26682;51.660;19.338;2023-04-03T07:27:22;2.80;1.00
40952;DHT22;26682;51.660;19.338;2023-04-03T07:30:05;3.00;1.00
40952;DHT22;26682;51.660;19.338;2023-04-03T07:32:48;3.10;1.00
40952;DHT22;26682;51.660;19.338;2023-04-03T07:35:31;3.10;99.90
40952;DHT22;26682;51.660;19.338;2023-04-03T07:38:13;3.00;99.90
40952;DHT22;26682;51.660;19.338;2023-04-03T07:40:56;2.80;99.90
40952;DHT22;26682;51.660;19.338;2023-04-03T07:43:38;2.50;99.90
40952;DHT22;26682;51.660;19.338;2023-04-03T07:46:21;2.40;99.90
40952;DHT22;26682;51.660;19.338;2023-04-03T07:49:03;2.50;99.90
40952;DHT22;26682;51.660;19.338;2023-04-03T07:51:45;2.50;99.90
40952;DHT22;26682;51.660;19.338;2023-04-03T07:54:28;2.70;99.90
40952;DHT22;26682;51.660;19.338;2023-04-03T07:57:11;2.70;99.90
40952;DHT22;26682;51.660;19.338;2023-04-03T07:59:53;2.70;99.90
40952;DHT22;26682;51.660;19.338;2023-04-03T08:02:36;2.60;99.90
40952;DHT22;26682;51.660;19.338;2023-04-03T08:05:19;2.60;99.90
40952;DHT22;26682;51.660;19.338;2023-04-03T08:08:02;2.80;99.90
40952;DHT22;26682;51.660;19.338;2023-04-03T08:10:49;2.60;99.90
40952;DHT22;26682;51.660;19.338;2023-04-03T08:13:32;2.50;99.90
40952;DHT22;26682;51.660;19.338;2023-04-03T08:16:18;2.50;99.90
40952;DHT22;26682;51.660;19.338;2023-04-03T08:19:02;2.70;99.90
40952;DHT22;26682;51.660;19.338;2023-04-03T08:21:50;2.80;99.90
40952;DHT22;26682;51.660;19.338;2023-04-03T08:24:34;2.80;99.90
40952;DHT22;26682;51.660;19.338;2023-04-03T08:27:18;3.00;99.90
40952;DHT22;26682;51.660;19.338;2023-04-03T08:30:01;3.20;99.90
40952;DHT22;26682;51.660;19.338;2023-04-03T08:32:44;3.10;99.90
40952;DHT22;26682;51.660;19.338;2023-04-03T08:35:27;2.80;99.90
40952;DHT22;26682;51.660;19.338;2023-04-03T08:38:10;2.70;99.90
40952;DHT22;26682;51.660;19.338;2023-04-03T08:47:28;3.00;99.90
40952;DHT22;26682;51.660;19.338;2023-04-03T08:50:19;3.20;99.90
40952;DHT22;26682;51.660;19.338;2023-04-03T08:53:06;3.30;99.90
40952;DHT22;26682;51.660;19.338;2023-04-03T08:55:55;3.30;99.90
40952;DHT22;26682;51.660;19.338;2023-04-03T08:58:57;3.10;99.90
40952;DHT22;26682;51.660;19.338;2023-04-03T09:01:40;2.70;99.90
40952;DHT22;26682;51.660;19.338;2023-04-03T09:04:27;2.70;99.90
40952;DHT22;26682;51.660;19.338;2023-04-03T09:07:20;2.80;99.90
40952;DHT22;26682;51.660;19.338;2023-04-03T09:10:06;2.90;99.90
40952;DHT22;26682;51.660;19.338;2023-04-03T09:12:59;3.00;99.90
40952;DHT22;26682;51.660;19.338;2023-04-03T09:15:44;3.00;99.90
40952;DHT22;26682;51.660;19.338;2023-04-03T09:18:30;2.90;99.90
40952;DHT22;26682;51.660;19.338;2023-04-03T09:21:28;3.00;99.90
40952;DHT22;26682;51.660;19.338;2023-04-03T09:24:14;2.70;99.90
40952;DHT22;26682;51.660;19.338;2023-04-03T09:27:07;2.80;99.90
40952;DHT22;26682;51.660;19.338;2023-04-03T09:29:56;2.90;99.90
40952;DHT22;26682;51.660;19.338;2023-04-03T09:32:39;2.90;99.90
40952;DHT22;26682;51.660;19.338;2023-04-03T09:35:29;2.90;99.90
40952;DHT22;26682;51.660;19.338;2023-04-03T09:38:28;3.00;99.90
40952;DHT22;26682;51.660;19.338;2023-04-03T09:41:16;2.90;99.90
40952;DHT22;26682;51.660;19.338;2023-04-03T09:43:59;2.80;99.90
40952;DHT22;26682;51.660;19.338;2023-04-03T09:46:42;3.10;99.90
40952;DHT22;26682;51.660;19.338;2023-04-03T09:49:25;3.40;99.90
40952;DHT22;26682;51.660;19.338;2023-04-03T09:52:24;3.50;99.90
40952;DHT22;26682;51.660;19.338;2023-04-03T09:55:27;3.60;99.90
40952;DHT22;26682;51.660;19.338;2023-04-03T09:58:29;3.50;99.90
40952;DHT22;26682;51.660;19.338;2023-04-03T10:01:33;3.30;64.30
40952;DHT22;26682;51.660;19.338;2023-04-03T10:04:19;2.90;70.50
40952;DHT22;26682;51.660;19.338;2023-04-03T10:07:31;3.20;62.20
40952;DHT22;26682;51.660;19.338;2023-04-03T10:10:19;3.30;99.70
40952;DHT22;26682;51.660;19.338;2023-04-03T10:13:18;3.30;90.40
40952;DHT22;26682;51.660;19.338;2023-04-03T10:16:07;3.70;43.00
40952;DHT22;26682;51.660;19.338;2023-04-03T10:21:59;3.70;68.20
40952;DHT22;26682;51.660;19.338;2023-04-03T10:36:19;3.30;26.30
40952;DHT22;26682;51.660;19.338;2023-04-03T10:39:16;3.60;23.70
40952;DHT22;26682;51.660;19.338;2023-04-03T10:42:14;3.70;7.20
40952;DHT22;26682;51.660;19.338;2023-04-03T10:45:19;3.40;1.00
40952;DHT22;26682;51.660;19.338;2023-04-03T10:48:11;3.40;1.00
40952;DHT22;26682;51.660;19.338;2023-04-03T10:54:08;3.10;1.00
40952;DHT22;26682;51.660;19.338;2023-04-03T10:59:53;3.40;1.00
40952;DHT22;26682;51.660;19.338;2023-04-03T11:02:53;3.30;1.00
40952;DHT22;26682;51.660;19.338;2023-04-03T11:05:44;3.20;1.00
40952;DHT22;26682;51.660;19.338;2023-04-03T11:08:38;3.60;1.00
40952;DHT22;26682;51.660;19.338;2023-04-03T11:11:26;3.90;1.00
40952;DHT22;26682;51.660;19.338;2023-04-03T11:14:29;4.10;1.00
40952;DHT22;26682;51.660;19.338;2023-04-03T11:23:08;4.20;1.00
40952;DHT22;26682;51.660;19.338;2023-04-03T11:26:29;3.80;1.00
40952;DHT22;26682;51.660;19.338;2023-04-03T11:29:16;3.80;1.00
40952;DHT22;26682;51.660;19.338;2023-04-03T11:35:17;3.90;1.00
40952;DHT22;26682;51.660;19.338;2023-04-03T11:38:02;3.90;1.00
40952;DHT22;26682;51.660;19.338;2023-04-03T11:40:48;4.10;1.00
40952;DHT22;26682;51.660;19.338;2023-04-03T11:43:33;4.00;1.00
40952;DHT22;26682;51.660;19.338;2023-04-03T11:46:16;3.90;99.90
40952;DHT22;26682;51.660;19.338;2023-04-03T11:49:01;4.10;1.00
40952;DHT22;26682;51.660;19.338;2023-04-03T11:51:43;4.00;99.90
40952;DHT22;26682;51.660;19.338;2023-04-03T11:54:44;4.00;99.90
40952;DHT22;26682;51.660;19.338;2023-04-03T11:57:45;4.10;99.90
40952;DHT22;26682;51.660;19.338;2023-04-03T12:12:42;4.50;99.90
40952;DHT22;26682;51.660;19.338;2023-04-03T12:18:41;4.60;99.90
40952;DHT22;26682;51.660;19.338;2023-04-03T12:36:10;4.40;99.90
40952;DHT22;26682;51.660;19.338;2023-04-03T12:39:20;4.50;99.90
40952;DHT22;26682;51.660;19.338;2023-04-03T12:45:24;4.60;99.90
40952;DHT22;26682;51.660;19.338;2023-04-03T12:48:17;4.60;99.90
40952;DHT22;26682;51.660;19.338;2023-04-03T12:51:38;4.70;99.90
40952;DHT22;26682;51.660;19.338;2023-04-03T12:54:38;4.30;99.90
40952;DHT22;26682;51.660;19.338;2023-04-03T12:57:25;4.20;99.90
40952;DHT22;26682;51.660;19.338;2023-04-03T13:03:23;4.60;99.90
40952;DHT22;26682;51.660;19.338;2023-04-03T13:06:06;4.70;99.90
40952;DHT22;26682;51.660;19.338;2023-04-03T13:08:57;4.60;99.90
40952;DHT22;26682;51.660;19.338;2023-04-03T13:11:41;4.40;99.90
40952;DHT22;26682;51.660;19.338;2023-04-03T13:14:28;4.30;99.90
40952;DHT22;26682;51.660;19.338;2023-04-03T13:17:49;4.20;99.90
40952;DHT22;26682;51.660;19.338;2023-04-03T13:20:35;4.40;99.90
40952;DHT22;26682;51.660;19.338;2023-04-03T13:23:20;4.60;99.90
40952;DHT22;26682;51.660;19.338;2023-04-03T13:26:04;4.50;99.90
40952;DHT22;26682;51.660;19.338;2023-04-03T13:28:47;4.50;99.90
40952;DHT22;26682;51.660;19.338;2023-04-03T13:31:38;4.30;99.90
40952;DHT22;26682;51.660;19.338;2023-04-03T13:34:23;4.10;99.90
40952;DHT22;26682;51.660;19.338;2023-04-03T13:37:22;4.10;99.90
40952;DHT22;26682;51.660;19.338;2023-04-03T13:43:54;4.00;99.90
40952;DHT22;26682;51.660;19.338;2023-04-03T13:47:23;4.00;99.90
40952;DHT22;26682;51.660;19.338;2023-04-03T13:50:30;4.20;99.90
40952;DHT22;26682;51.660;19.338;2023-04-03T13:53:40;4.30;99.90
40952;DHT22;26682;51.660;19.338;2023-04-03T13:56:45;4.10;99.90
40952;DHT22;26682;51.660;19.338;2023-04-03T13:59:33;4.00;99.90
40952;DHT22;26682;51.660;19.338;2023-04-03T14:02:32;4.00;99.90
40952;DHT22;26682;51.660;19.338;2023-04-03T14:05:15;3.90;99.90
40952;DHT22;26682;51.660;19.338;2023-04-03T14:08:00;3.90;99.90
40952;DHT22;26682;51.660;19.338;2023-04-03T14:10:44;3.90;99.90
40952;DHT22;26682;51.660;19.338;2023-04-03T14:13:30;4.10;99.90
40952;DHT22;26682;51.660;19.338;2023-04-03T14:16:18;4.20;99.90
40952;DHT22;26682;51.660;19.338;2023-04-03T14:19:02;4.20;99.90
40952;DHT22;26682;51.660;19.338;2023-04-03T14:21:44;4.00;99.90
40952;DHT22;26682;51.660;19.338;2023-04-03T14:24:27;4.00;99.90
40952;DHT22;26682;51.660;19.338;2023-04-03T14:30:26;4.20;99.90
40952;DHT22;26682;51.660;19.338;2023-04-03T14:33:14;4.20;99.90
40952;DHT22;26682;51.660;19.338;2023-04-03T14:35:56;4.10;99.90
40952;DHT22;26682;51.660;19.338;2023-04-03T14:38:40;4.00;99.90
40952;DHT22;26682;51.660;19.338;2023-04-03T14:41:24;4.00;99.90
40952;DHT22;26682;51.660;19.338;2023-04-03T14:44:08;3.90;99.90
40952;DHT22;26682;51.660;19.338;2023-04-03T14:46:50;3.90;99.90
40952;DHT22;26682;51.660;19.338;2023-04-03T14:49:38;4.00;99.90
40952;DHT22;26682;51.660;19.338;2023-04-03T14:52:25;4.20;99.90
40952;DHT22;26682;51.660;19.338;2023-04-03T14:55:08;4.30;99.90
40952;DHT22;26682;51.660;19.338;2023-04-03T14:57:52;4.30;99.90
40952;DHT22;26682;51.660;19.338;2023-04-03T15:00:35;4.30;99.90
40952;DHT22;26682;51.660;19.338;2023-04-03T15:03:20;4.20;99.90
40952;DHT22;26682;51.660;19.338;2023-04-03T15:06:03;4.20;99.90
40952;DHT22;26682;51.660;19.338;2023-04-03T15:08:47;4.20;99.90
40952;DHT22;26682;51.660;19.338;2023-04-03T15:11:29;4.20;99.90
40952;DHT22;26682;51.660;19.338;2023-04-03T15:14:12;4.20;99.90
40952;DHT22;26682;51.660;19.338;2023-04-03T15:16:54;4.10;99.90
40952;DHT22;26682;51.660;19.338;2023-04-03T15:19:37;4.20;99.90
40952;DHT22;26682;51.660;19.338;2023-04-03T15:22:20;4.30;99.90
40952;DHT22;26682;51.660;19.338;2023-04-03T15:25:03;4.40;99.90
40952;DHT22;26682;51.660;19.338;2023-04-03T15:27:45;4.40;99.90
40952;DHT22;26682;51.660;19.338;2023-04-03T15:30:28;4.40;99.90
40952;DHT22;26682;51.660;19.338;2023-04-03T15:33:10;4.20;99.90
40952;DHT22;26682;51.660;19.338;2023-04-03T15:35:53;4.20;99.90
40952;DHT22;26682;51.660;19.338;2023-04-03T15:38:48;4.20;99.90
40952;DHT22;26682;51.660;19.338;2023-04-03T15:41:32;4.20;99.90
40952;DHT22;26682;51.660;19.338;2023-04-03T15:44:15;4.20;99.90
40952;DHT22;26682;51.660;19.338;2023-04-03T15:47:00;4.10;99.90
40952;DHT22;26682;51.660;19.338;2023-04-03T15:49:43;4.10;99.90
40952;DHT22;26682;51.660;19.338;2023-04-03T15:52:26;4.00;99.90
40952;DHT22;26682;51.660;19.338;2023-04-03T15:55:09;4.10;99.90
40952;DHT22;26682;51.660;19.338;2023-04-03T15:57:53;4.10;99.90
40952;DHT22;26682;51.660;19.338;2023-04-03T16:00:37;4.00;99.90
40952;DHT22;26682;51.660;19.338;2023-04-03T16:03:20;4.00;99.90
40952;DHT22;26682;51.660;19.338;2023-04-03T16:06:05;4.00;99.90
40952;DHT22;26682;51.660;19.338;2023-04-03T16:08:48;4.00;99.90
40952;DHT22;26682;51.660;19.338;2023-04-03T16:11:31;3.90;99.90
40952;DHT22;26682;51.660;19.338;2023-04-03T16:14:13;3.90;99.90
40952;DHT22;26682;51.660;19.338;2023-04-03T16:16:57;3.80;99.90
40952;DHT22;26682;51.660;19.338;2023-04-03T16:19:41;3.60;99.90
40952;DHT22;26682;51.660;19.338;2023-04-03T16:22:25;3.50;99.90
40952;DHT22;26682;51.660;19.338;2023-04-03T16:25:08;3.40;99.90
40952;DHT22;26682;51.660;19.338;2023-04-03T16:27:51;3.40;99.90
40952;DHT22;26682;51.660;19.338;2023-04-03T16:30:33;3.50;99.90
40952;DHT22;26682;51.660;19.338;2023-04-03T16:33:16;3.50;99.90
40952;DHT22;26682;51.660;19.338;2023-04-03T16:35:59;3.50;99.90
40952;DHT22;26682;51.660;19.338;2023-04-03T16:38:41;3.50;99.90
40952;DHT22;26682;51.660;19.338;2023-04-03T16:41:24;3.50;99.90
40952;DHT22;26682;51.660;19.338;2023-04-03T16:44:06;3.50;99.90
40952;DHT22;26682;51.660;19.338;2023-04-03T16:46:50;3.50;99.90
40952;DHT22;26682;51.660;19.338;2023-04-03T16:49:34;3.50;99.90
40952;DHT22;26682;51.660;19.338;2023-04-03T16:52:17;3.50;99.90
40952;DHT22;26682;51.660;19.338;2023-04-03T16:55:00;3.50;99.90
40952;DHT22;26682;51.660;19.338;2023-04-03T16:57:42;3.40;99.90
40952;DHT22;26682;51.660;19.338;2023-04-03T17:00:25;3.40;99.90
40952;DHT22;26682;51.660;19.338;2023-04-03T17:03:08;3.40;99.90
40952;DHT22;26682;51.660;19.338;2023-04-03T17:05:50;3.30;99.90
40952;DHT22;26682;51.660;19.338;2023-04-03T17:08:34;3.30;99.90
40952;DHT22;26682;51.660;19.338;2023-04-03T17:11:17;3.30;99.90
40952;DHT22;26682;51.660;19.338;2023-04-03T17:14:00;3.30;99.90
40952;DHT22;26682;51.660;19.338;2023-04-03T17:16:42;3.20;99.90
40952;DHT22;26682;51.660;19.338;2023-04-03T17:19:26;3.20;99.90
40952;DHT22;26682;51.660;19.338;2023-04-03T17:22:09;3.20;99.90
40952;DHT22;26682;51.660;19.338;2023-04-03T17:24:52;3.10;99.90
40952;DHT22;26682;51.660;19.338;2023-04-03T17:27:35;3.10;99.90
40952;DHT22;26682;51.660;19.338;2023-04-03T17:30:18;3.10;99.90
40952;DHT22;26682;51.660;19.338;2023-04-03T17:33:01;3.00;99.90
40952;DHT22;26682;51.660;19.338;2023-04-03T17:35:44;3.00;99.90
40952;DHT22;26682;51.660;19.338;2023-04-03T17:38:27;3.00;99.90
40952;DHT22;26682;51.660;19.338;2023-04-03T17:41:11;3.00;99.90
40952;DHT22;26682;51.660;19.338;2023-04-03T17:43:53;2.90;99.90
40952;DHT22;26682;51.660;19.338;2023-04-03T17:46:38;2.90;99.90
40952;DHT22;26682;51.660;19.338;2023-04-03T17:49:22;2.90;99.90
40952;DHT22;26682;51.660;19.338;2023-04-03T17:52:06;2.80;99.90
40952;DHT22;26682;51.660;19.338;2023-04-03T17:54:48;2.80;99.90
40952;DHT22;26682;51.660;19.338;2023-04-03T17:57:32;2.70;99.90
40952;DHT22;26682;51.660;19.338;2023-04-03T18:00:15;2.70;99.90
40952;DHT22;26682;51.660;19.338;2023-04-03T18:02:59;2.70;99.90
40952;DHT22;26682;51.660;19.338;2023-04-03T18:05:42;2.60;99.90
40952;DHT22;26682;51.660;19.338;2023-04-03T18:08:26;2.60;99.90
40952;DHT22;26682;51.660;19.338;2023-04-03T18:11:08;2.60;99.90
40952;DHT22;26682;51.660;19.338;2023-04-03T18:13:54;2.60;99.90
40952;DHT22;26682;51.660;19.338;2023-04-03T18:16:38;2.50;99.90
40952;DHT22;26682;51.660;19.338;2023-04-03T18:19:23;2.50;99.90
40952;DHT22;26682;51.660;19.338;2023-04-03T18:22:14;2.50;99.90
40952;DHT22;26682;51.660;19.338;2023-04-03T18:24:58;2.40;99.90
40952;DHT22;26682;51.660;19.338;2023-04-03T18:27:42;2.40;99.90
40952;DHT22;26682;51.660;19.338;2023-04-03T18:30:25;2.40;99.90
40952;DHT22;26682;51.660;19.338;2023-04-03T18:33:08;2.30;99.90
40952;DHT22;26682;51.660;19.338;2023-04-03T18:35:51;2.30;99.90
40952;DHT22;26682;51.660;19.338;2023-04-03T18:38:34;2.20;99.90
40952;DHT22;26682;51.660;19.338;2023-04-03T18:41:17;2.20;99.90
40952;DHT22;26682;51.660;19.338;2023-04-03T18:44:02;2.10;99.90
40952;DHT22;26682;51.660;19.338;2023-04-03T18:46:46;2.10;99.90
40952;DHT22;26682;51.660;19.338;2023-04-03T18:49:30;2.00;99.90